createdAt,value
2019-05-13T00:00:36.511Z,12.70
2019-05-13T00:02:39.142Z,12.70
2019-05-13T00:04:43.652Z,12.70
2019-05-13T00:06:53.978Z,12.70
2019-05-13T00:08:46.915Z,12.70
2019-05-13T00:10:50.259Z,12.80
2019-05-13T00:12:53.997Z,12.70
2019-05-13T00:14:56.321Z,12.70
2019-05-13T00:16:58.875Z,12.80
2019-05-13T00:19:03.967Z,12.80
2019-05-13T00:21:04.076Z,12.70
2019-05-13T00:23:06.627Z,12.70
2019-05-13T00:25:09.305Z,12.70
2019-05-13T00:27:14.017Z,12.70
2019-05-13T00:29:15.099Z,12.70
2019-05-13T00:31:17.743Z,12.70
2019-05-13T00:33:20.417Z,12.70
2019-05-13T00:35:23.413Z,12.70
2019-05-13T00:37:25.563Z,12.70
2019-05-13T00:39:28.242Z,12.70
2019-05-13T00:41:30.947Z,12.70
2019-05-13T00:43:34.007Z,12.70
2019-05-13T00:45:36.059Z,12.70
2019-05-13T00:47:39.140Z,12.70
2019-05-13T00:49:43.552Z,12.70
2019-05-13T00:51:44.648Z,12.70
2019-05-13T00:53:48.579Z,12.60
2019-05-13T00:55:53.419Z,12.60
2019-05-13T00:57:54.182Z,12.70
2019-05-13T00:59:56.723Z,12.60
2019-05-13T01:01:59.295Z,12.60
2019-05-13T01:04:04.015Z,12.60
2019-05-13T01:06:04.555Z,12.60
2019-05-13T01:08:07.399Z,12.60
2019-05-13T01:10:09.976Z,12.50
2019-05-13T01:12:13.376Z,12.50
2019-05-13T01:14:15.259Z,12.40
2019-05-13T01:16:17.843Z,12.40
2019-05-13T01:18:23.271Z,12.40
2019-05-13T01:20:23.785Z,12.30
2019-05-13T01:22:26.375Z,12.30
2019-05-13T01:24:28.923Z,12.30
2019-05-13T01:26:33.605Z,12.30
2019-05-13T01:28:34.606Z,12.30
2019-05-13T01:30:36.970Z,12.20
2019-05-13T01:32:39.556Z,12.20
2019-05-13T01:34:44.222Z,12.10
2019-05-13T01:36:44.881Z,12.10
2019-05-13T01:38:48.167Z,12.00
2019-05-13T01:40:50.876Z,12.00
2019-05-13T01:42:54.177Z,12.00
2019-05-13T01:44:56.019Z,12.00
2019-05-13T01:46:58.700Z,12.00
2019-05-13T01:49:01.302Z,11.90
2019-05-13T01:51:04.087Z,11.90
2019-05-13T01:53:06.409Z,11.90
2019-05-13T01:55:09.098Z,11.90
2019-05-13T01:57:11.662Z,11.90
2019-05-13T01:59:15.190Z,11.80
2019-05-13T02:01:16.926Z,11.80
2019-05-13T02:03:19.480Z,11.80
2019-05-13T02:05:24.113Z,11.80
2019-05-13T02:07:24.631Z,11.80
2019-05-13T02:09:27.210Z,11.80
2019-05-13T02:11:29.894Z,11.80
2019-05-13T02:13:34.383Z,11.80
2019-05-13T02:15:35.868Z,11.80
2019-05-13T02:17:38.617Z,11.80
2019-05-13T02:19:41.176Z,11.80
2019-05-13T02:21:44.002Z,11.80
2019-05-13T02:23:46.446Z,11.80
2019-05-13T02:25:49.009Z,11.80
2019-05-13T02:27:54.104Z,11.80
2019-05-13T02:29:54.276Z,11.80
2019-05-13T02:31:56.839Z,11.80
2019-05-13T02:34:02.490Z,11.70
2019-05-13T02:36:03.469Z,11.70
2019-05-13T02:38:19.849Z,11.70
2019-05-13T02:40:08.159Z,11.70
2019-05-13T02:42:13.252Z,11.70
2019-05-13T02:44:13.767Z,11.70
2019-05-13T02:46:17.071Z,11.70
2019-05-13T02:48:23.420Z,11.70
2019-05-13T02:50:22.732Z,11.70
2019-05-13T02:52:24.839Z,11.70
2019-05-13T02:54:27.507Z,11.60
2019-05-13T02:56:32.823Z,11.60
2019-05-13T02:58:33.884Z,11.60
2019-05-13T03:00:35.980Z,11.60
2019-05-13T03:02:38.620Z,11.60
2019-05-13T03:04:43.322Z,11.60
2019-05-13T03:06:43.844Z,11.60
2019-05-13T03:08:50.122Z,11.60
2019-05-13T03:10:48.915Z,11.60
2019-05-13T03:12:53.429Z,11.60
2019-05-13T03:14:54.155Z,11.50
2019-05-13T03:17:03.234Z,11.50
2019-05-13T03:19:03.202Z,11.50
2019-05-13T03:21:06.006Z,11.50
2019-05-13T03:23:13.069Z,11.50
2019-05-13T03:25:13.182Z,11.50
2019-05-13T03:27:20.005Z,11.40
2019-05-13T03:29:18.004Z,11.40
2019-05-13T03:31:25.669Z,11.40
2019-05-13T03:33:27.977Z,11.40
2019-05-13T03:35:27.598Z,11.40
2019-05-13T03:37:29.120Z,11.40
2019-05-13T03:39:33.160Z,11.30
2019-05-13T03:41:34.229Z,11.30
2019-05-13T03:43:36.949Z,11.30
2019-05-13T03:45:39.509Z,11.30
2019-05-13T03:47:42.655Z,11.30
2019-05-13T03:49:46.015Z,11.30
2019-05-13T03:51:48.551Z,11.30
2019-05-13T03:53:53.494Z,11.30
2019-05-13T03:55:54.341Z,11.30
2019-05-13T03:57:56.780Z,11.20
2019-05-13T04:00:03.232Z,11.20
2019-05-13T04:02:02.905Z,11.20
2019-05-13T04:04:05.142Z,11.20
2019-05-13T04:06:07.685Z,11.10
2019-05-13T04:08:12.991Z,11.10
2019-05-13T04:10:13.295Z,11.10
2019-05-13T04:12:16.086Z,11.10
2019-05-13T04:14:22.891Z,11.10
2019-05-13T04:16:23.925Z,11.10
2019-05-13T04:18:25.521Z,11.10
2019-05-13T04:20:28.101Z,11.10
2019-05-13T04:22:33.332Z,11.10
2019-05-13T04:24:33.740Z,11.00
2019-05-13T04:26:36.003Z,11.00
2019-05-13T04:28:39.379Z,11.00
2019-05-13T04:30:43.548Z,11.00
2019-05-13T04:32:44.556Z,11.00
2019-05-13T04:34:47.134Z,11.00
2019-05-13T04:36:52.031Z,11.00
2019-05-13T04:38:53.056Z,11.00
2019-05-13T04:40:54.940Z,11.00
2019-05-13T04:42:57.533Z,11.00
2019-05-13T04:45:03.009Z,11.00
2019-05-13T04:47:03.969Z,11.00
2019-05-13T04:49:06.484Z,11.00
2019-05-13T04:51:09.055Z,11.00
2019-05-13T04:53:13.661Z,11.00
2019-05-13T04:55:14.815Z,11.00
2019-05-13T04:57:17.495Z,11.00
2019-05-13T04:59:22.702Z,11.00
2019-05-13T05:01:52.142Z,11.00
2019-05-13T05:03:53.223Z,11.00
2019-05-13T05:05:53.157Z,11.00
2019-05-13T05:07:56.494Z,11.00
2019-05-13T05:10:29.377Z,11.10
2019-05-13T05:12:24.595Z,11.10
2019-05-13T05:14:41.805Z,11.10
2019-05-13T05:16:52.374Z,11.00
2019-05-13T05:19:23.698Z,11.10
2019-05-13T05:21:23.986Z,11.10
2019-05-13T05:23:43.250Z,11.10
2019-05-13T05:25:54.328Z,11.10
2019-05-13T05:27:58.656Z,11.10
2019-05-13T05:30:05.106Z,11.10
2019-05-13T05:32:14.561Z,11.10
2019-05-13T05:34:35.443Z,11.10
2019-05-13T05:36:51.974Z,11.10
2019-05-13T05:39:14.279Z,11.10
2019-05-13T05:41:16.818Z,11.10
2019-05-13T05:43:22.311Z,11.10
2019-05-13T05:45:22.925Z,11.10
2019-05-13T05:47:25.483Z,11.20
2019-05-13T05:49:28.075Z,11.20
2019-05-13T05:51:31.482Z,11.30
2019-05-13T05:53:33.318Z,11.30
2019-05-13T05:55:36.041Z,11.40
2019-05-13T05:57:38.711Z,11.40
2019-05-13T05:59:42.971Z,11.50
2019-05-13T06:01:45.336Z,11.50
2019-05-13T06:03:48.454Z,11.50
2019-05-13T06:05:51.316Z,11.60
2019-05-13T06:07:53.567Z,11.60
2019-05-13T06:09:56.167Z,11.60
2019-05-13T06:11:58.715Z,11.70
2019-05-13T06:14:02.317Z,11.70
2019-05-13T06:16:03.980Z,11.70
2019-05-13T06:18:06.847Z,11.70
2019-05-13T06:20:09.470Z,11.70
2019-05-13T06:22:12.423Z,11.80
2019-05-13T06:24:14.689Z,11.80
2019-05-13T06:26:17.255Z,11.90
2019-05-13T06:28:21.736Z,12.00
2019-05-13T06:30:22.799Z,12.10
2019-05-13T06:32:26.565Z,12.20
2019-05-13T06:34:28.103Z,12.20
2019-05-13T06:36:31.620Z,12.30
2019-05-13T06:38:33.420Z,12.40
2019-05-13T06:40:35.974Z,12.40
2019-05-13T06:42:41.572Z,12.50
2019-05-13T06:44:42.204Z,12.50
2019-05-13T06:46:44.564Z,12.60
2019-05-13T06:48:47.096Z,12.60
2019-05-13T06:50:51.937Z,12.70
2019-05-13T06:52:52.713Z,12.80
2019-05-13T06:54:55.260Z,12.90
2019-05-13T06:56:57.841Z,13.00
2019-05-13T06:59:01.454Z,13.00
2019-05-13T07:01:03.992Z,13.00
2019-05-13T07:03:06.727Z,13.10
2019-05-13T07:05:11.821Z,13.10
2019-05-13T07:07:16.896Z,13.20
2019-05-13T07:09:15.266Z,13.20
2019-05-13T07:11:21.735Z,13.20
2019-05-13T07:13:21.782Z,13.20
2019-05-13T07:15:23.762Z,13.20
2019-05-13T07:17:26.341Z,13.20
2019-05-13T07:19:32.400Z,13.10
2019-05-13T07:21:33.044Z,13.10
2019-05-13T07:23:36.355Z,13.00
2019-05-13T07:25:41.801Z,13.00
2019-05-13T07:27:42.451Z,13.00
2019-05-13T07:29:44.210Z,12.90
2019-05-13T07:31:47.567Z,13.00
2019-05-13T07:33:51.741Z,12.90
2019-05-13T07:35:58.259Z,13.00
2019-05-13T07:37:55.466Z,13.00
2019-05-13T07:39:58.816Z,13.10
2019-05-13T07:42:05.056Z,13.10
2019-05-13T07:44:03.907Z,13.20
2019-05-13T07:46:07.368Z,13.30
2019-05-13T07:48:20.765Z,13.30
2019-05-13T07:50:12.892Z,13.30
2019-05-13T07:52:15.210Z,13.40
2019-05-13T07:54:21.854Z,13.50
2019-05-13T07:56:22.071Z,13.50
2019-05-13T07:58:25.350Z,13.60
2019-05-13T08:00:27.960Z,13.50
2019-05-13T08:02:31.986Z,13.60
2019-05-13T08:04:34.132Z,13.70
2019-05-13T08:06:36.670Z,13.60
2019-05-13T08:08:41.659Z,13.70
2019-05-13T08:10:42.343Z,13.70
2019-05-13T08:12:44.916Z,13.80
2019-05-13T08:14:47.483Z,13.80
2019-05-13T08:16:51.836Z,13.80
2019-05-13T08:18:52.727Z,13.90
2019-05-13T08:20:56.022Z,14.00
2019-05-13T08:22:58.656Z,14.00
2019-05-13T08:25:03.058Z,14.10
2019-05-13T08:27:03.851Z,14.10
2019-05-13T08:29:06.528Z,14.10
2019-05-13T08:31:09.090Z,14.20
2019-05-13T08:33:12.500Z,14.20
2019-05-13T08:35:14.214Z,14.20
2019-05-13T08:37:16.754Z,14.20
2019-05-13T08:39:21.642Z,14.20
2019-05-13T08:41:23.569Z,14.20
2019-05-13T08:43:25.351Z,14.30
2019-05-13T08:45:28.468Z,14.30
2019-05-13T08:47:31.485Z,14.30
2019-05-13T08:49:33.786Z,14.40
2019-05-13T08:51:41.812Z,14.40
2019-05-13T08:53:42.553Z,14.50
2019-05-13T08:55:44.574Z,14.50
2019-05-13T08:57:52.229Z,14.50
2019-05-13T08:59:53.415Z,14.60
2019-05-13T09:01:56.154Z,14.60
2019-05-13T09:04:01.914Z,14.60
2019-05-13T09:06:02.860Z,14.60
2019-05-13T09:08:04.012Z,14.60
2019-05-13T09:10:06.594Z,14.70
2019-05-13T09:12:11.440Z,14.60
2019-05-13T09:14:11.737Z,14.70
2019-05-13T09:16:14.342Z,14.70
2019-05-13T09:18:16.987Z,14.80
2019-05-13T09:20:21.879Z,14.90
2019-05-13T09:22:22.331Z,14.90
2019-05-13T09:24:33.151Z,15.00
2019-05-13T09:26:27.592Z,15.10
2019-05-13T09:28:32.419Z,15.10
2019-05-13T09:30:32.819Z,15.20
2019-05-13T09:32:35.402Z,15.20
2019-05-13T09:34:37.974Z,15.20
2019-05-13T09:36:41.701Z,15.30
2019-05-13T09:38:43.664Z,15.30
2019-05-13T09:40:46.211Z,15.40
2019-05-13T09:42:52.076Z,15.40
2019-05-13T09:44:52.575Z,15.40
2019-05-13T09:46:54.039Z,15.50
2019-05-13T09:49:11.905Z,15.50
2019-05-13T09:51:02.147Z,15.70
2019-05-13T09:53:03.599Z,15.60
2019-05-13T09:55:22.040Z,15.60
2019-05-13T09:57:08.818Z,15.60
2019-05-13T09:59:11.890Z,15.60
2019-05-13T10:01:14.746Z,15.60
2019-05-13T10:03:17.296Z,15.60
2019-05-13T10:05:22.105Z,15.70
2019-05-13T10:07:23.072Z,15.70
2019-05-13T10:09:26.844Z,15.70
2019-05-13T10:11:29.378Z,15.80
2019-05-13T10:13:32.197Z,15.80
2019-05-13T10:15:34.645Z,15.90
2019-05-13T10:17:37.234Z,15.90
2019-05-13T10:19:42.012Z,15.90
2019-05-13T10:21:42.786Z,15.90
2019-05-13T10:23:45.738Z,16.00
2019-05-13T10:25:48.375Z,16.00
2019-05-13T10:27:50.931Z,16.00
2019-05-13T10:29:53.503Z,16.10
2019-05-13T10:31:56.174Z,16.10
2019-05-13T10:33:58.812Z,16.10
2019-05-13T10:36:03.311Z,16.20
2019-05-13T10:38:04.737Z,16.20
2019-05-13T10:40:07.316Z,16.20
2019-05-13T10:42:12.051Z,16.30
2019-05-13T10:44:12.672Z,16.30
2019-05-13T10:46:15.217Z,16.30
2019-05-13T10:48:17.762Z,16.30
2019-05-13T10:50:21.624Z,16.30
2019-05-13T10:52:23.575Z,16.30
2019-05-13T10:54:26.272Z,16.30
2019-05-13T10:56:28.983Z,16.40
2019-05-13T10:58:31.617Z,16.40
2019-05-13T11:00:51.686Z,16.40
2019-05-13T11:02:52.286Z,16.50
2019-05-13T11:04:55.452Z,16.50
2019-05-13T11:06:57.999Z,16.50
2019-05-13T11:09:02.182Z,16.50
2019-05-13T11:11:04.218Z,16.50
2019-05-13T11:13:10.622Z,16.50
2019-05-13T11:15:09.335Z,16.60
2019-05-13T11:17:13.174Z,16.60
2019-05-13T11:19:15.240Z,16.60
2019-05-13T11:21:17.912Z,16.60
2019-05-13T11:23:23.193Z,16.60
2019-05-13T11:25:24.579Z,16.60
2019-05-13T11:27:27.139Z,16.60
2019-05-13T11:29:32.389Z,16.70
2019-05-13T11:31:33.023Z,16.80
2019-05-13T11:33:34.987Z,16.90
2019-05-13T11:35:37.530Z,16.90
2019-05-13T11:37:40.111Z,16.90
2019-05-13T11:39:43.002Z,16.90
2019-05-13T11:41:45.294Z,16.90
2019-05-13T11:44:08.176Z,17.00
2019-05-13T11:45:51.786Z,17.00
2019-05-13T11:47:53.682Z,17.00
2019-05-13T11:49:56.499Z,17.10
2019-05-13T11:51:59.384Z,17.10
2019-05-13T11:54:02.575Z,17.30
2019-05-13T11:56:04.565Z,17.30
2019-05-13T11:58:07.203Z,17.30
2019-05-13T12:00:12.899Z,17.30
2019-05-13T12:02:13.642Z,17.30
2019-05-13T12:04:14.961Z,17.40
2019-05-13T12:06:17.499Z,17.40
2019-05-13T12:08:22.814Z,17.50
2019-05-13T12:10:22.907Z,17.60
2019-05-13T12:12:30.883Z,17.60
2019-05-13T12:15:04.996Z,17.80
2019-05-13T12:16:34.751Z,17.80
2019-05-13T12:18:33.989Z,17.80
2019-05-13T12:20:36.536Z,17.90
2019-05-13T12:22:39.113Z,18.00
2019-05-13T12:24:42.408Z,18.00
2019-05-13T12:26:44.403Z,18.10
2019-05-13T12:28:47.055Z,18.10
2019-05-13T12:30:53.148Z,18.20
2019-05-13T12:32:53.803Z,18.20
2019-05-13T12:34:56.347Z,18.30
2019-05-13T12:37:03.233Z,18.40
2019-05-13T12:39:02.488Z,18.40
2019-05-13T12:41:05.761Z,18.40
2019-05-13T12:43:08.218Z,18.40
2019-05-13T12:45:14.084Z,18.50
2019-05-13T12:47:13.364Z,18.60
2019-05-13T12:49:15.967Z,18.70
2019-05-13T12:51:18.614Z,18.70
2019-05-13T12:53:22.114Z,18.80
2019-05-13T12:55:23.948Z,18.90
2019-05-13T12:57:27.262Z,19.00
2019-05-13T12:59:32.052Z,19.00
2019-05-13T13:01:32.654Z,19.10
2019-05-13T13:03:35.217Z,19.20
2019-05-13T13:05:37.757Z,19.20
2019-05-13T13:07:42.375Z,19.30
2019-05-13T13:09:43.464Z,19.30
2019-05-13T13:11:45.783Z,19.30
2019-05-13T13:13:59.522Z,19.40
2019-05-13T13:15:52.780Z,19.40
2019-05-13T13:17:54.090Z,19.40
2019-05-13T13:20:04.696Z,19.50
2019-05-13T13:22:04.727Z,19.60
2019-05-13T13:24:04.355Z,19.60
2019-05-13T13:26:13.712Z,19.70
2019-05-13T13:28:12.104Z,19.80
2019-05-13T13:30:10.072Z,19.80
2019-05-13T13:32:13.402Z,19.80
2019-05-13T13:34:18.570Z,19.90
2019-05-13T13:36:17.715Z,20.00
2019-05-13T13:38:25.016Z,20.10
2019-05-13T13:40:28.366Z,20.20
2019-05-13T13:42:25.506Z,20.20
2019-05-13T13:44:28.115Z,20.30
2019-05-13T13:46:42.041Z,20.40
2019-05-13T13:48:33.473Z,20.50
2019-05-13T13:50:35.894Z,20.60
2019-05-13T13:52:39.311Z,20.60
2019-05-13T13:54:44.226Z,20.70
2019-05-13T13:56:44.827Z,20.80
2019-05-13T13:58:47.623Z,20.90
2019-05-13T14:01:01.760Z,21.00
2019-05-13T14:02:54.268Z,21.10
2019-05-13T14:04:55.437Z,21.10
2019-05-13T14:09:01.547Z,21.30
2019-05-13T14:11:03.202Z,21.40
2019-05-13T14:13:05.862Z,21.40
2019-05-13T14:15:08.403Z,21.50
2019-05-13T14:17:11.410Z,21.50
2019-05-13T14:19:15.319Z,21.50
2019-05-13T14:21:17.891Z,21.50
2019-05-13T14:23:21.277Z,21.50
2019-05-13T14:25:23.122Z,21.40
2019-05-13T14:27:25.667Z,21.50
2019-05-13T14:29:38.578Z,21.60
2019-05-13T14:31:32.378Z,21.60
2019-05-13T14:33:35.469Z,21.70
2019-05-13T14:35:37.197Z,21.80
2019-05-13T14:37:39.808Z,21.90
2019-05-13T14:39:42.590Z,22.00
2019-05-13T14:41:45.160Z,22.10
2019-05-13T14:43:48.230Z,22.10
2019-05-13T14:45:52.135Z,22.20
2019-05-13T14:47:53.484Z,22.10
2019-05-13T14:49:56.074Z,22.10
2019-05-13T14:52:01.237Z,22.00
2019-05-13T14:54:02.834Z,22.00
2019-05-13T14:56:05.132Z,21.90
2019-05-13T14:58:07.690Z,21.80
2019-05-13T15:00:10.240Z,21.60
2019-05-13T15:02:13.496Z,21.50
2019-05-13T15:04:17.663Z,21.40
2019-05-13T15:06:22.076Z,21.40
2019-05-13T15:08:25.784Z,21.30
2019-05-13T15:10:27.126Z,21.10
2019-05-13T15:12:32.225Z,21.10
2019-05-13T15:14:32.621Z,21.10
2019-05-13T15:16:35.212Z,21.10
2019-05-13T15:18:37.743Z,21.10
2019-05-13T15:20:41.704Z,21.00
2019-05-13T15:22:43.010Z,21.00
2019-05-13T15:24:45.571Z,21.00
2019-05-13T15:26:48.227Z,21.00
2019-05-13T15:28:51.876Z,20.90
2019-05-13T15:30:53.411Z,20.90
2019-05-13T15:32:56.059Z,20.80
2019-05-13T15:34:58.610Z,20.80
2019-05-13T15:37:01.991Z,20.70
2019-05-13T15:39:03.881Z,20.60
2019-05-13T15:41:06.451Z,20.50
2019-05-13T15:43:09.026Z,20.50
2019-05-13T15:45:12.486Z,20.50
2019-05-13T15:47:22.853Z,20.50
2019-05-13T15:49:16.833Z,20.40
2019-05-13T15:51:21.879Z,20.50
2019-05-13T15:53:22.335Z,20.60
2019-05-13T15:55:24.972Z,20.70
2019-05-13T15:57:29.855Z,20.80
2019-05-13T15:59:31.903Z,20.80
2019-05-13T16:01:34.442Z,20.80
2019-05-13T16:03:46.978Z,20.70
2019-05-13T16:10:53.258Z,20.70
2019-05-13T16:13:03.638Z,20.20
2019-05-13T16:20:51.858Z,20.10
2019-05-13T16:23:02.772Z,20.20
2019-05-13T16:30:51.688Z,20.30
2019-05-13T16:33:04.691Z,20.60
2019-05-13T16:35:18.009Z,21.10
2019-05-13T16:37:31.383Z,21.10
2019-05-13T16:39:43.661Z,21.30
2019-05-13T16:41:58.316Z,21.30
2019-05-13T16:50:51.874Z,21.30
2019-05-13T17:00:44.399Z,21.00
2019-05-13T17:10:51.387Z,20.80
2019-05-13T17:13:03.518Z,20.70
2019-05-13T17:20:42.961Z,20.70
2019-05-13T17:30:51.923Z,20.90
2019-05-13T17:32:53.273Z,21.00
2019-05-13T17:34:55.864Z,21.10
2019-05-13T17:36:58.446Z,21.20
2019-05-13T17:39:01.864Z,21.40
2019-05-13T17:41:03.579Z,21.50
2019-05-13T17:43:06.279Z,21.60
2019-05-13T17:45:11.208Z,21.70
2019-05-13T17:47:11.766Z,21.80
2019-05-13T17:49:14.259Z,21.90
2019-05-13T17:51:17.407Z,22.00
2019-05-13T17:53:21.640Z,22.10
2019-05-13T17:55:23.432Z,22.10
2019-05-13T17:57:25.983Z,22.20
2019-05-13T17:59:28.676Z,22.20
2019-05-13T18:01:31.684Z,22.20
2019-05-13T18:03:34.071Z,22.20
2019-05-13T18:05:37.426Z,22.30
2019-05-13T18:07:41.981Z,22.30
2019-05-13T18:09:42.571Z,22.30
2019-05-13T18:11:45.316Z,22.30
2019-05-13T18:13:47.864Z,22.40
2019-05-13T18:15:51.314Z,22.40
2019-05-13T18:17:54.707Z,22.40
2019-05-13T18:19:57.271Z,22.40
2019-05-13T18:22:01.965Z,22.40
2019-05-13T18:24:02.433Z,22.40
2019-05-13T18:26:04.962Z,22.40
2019-05-13T18:28:07.579Z,22.30
2019-05-13T18:30:11.458Z,22.30
2019-05-13T18:32:12.858Z,22.20
2019-05-13T18:34:16.462Z,22.10
2019-05-13T18:36:19.141Z,22.00
2019-05-13T18:38:22.456Z,21.80
2019-05-13T18:40:25.507Z,21.80
2019-05-13T18:42:28.183Z,21.80
2019-05-13T18:44:31.730Z,21.70
2019-05-13T18:46:33.551Z,21.60
2019-05-13T18:48:36.901Z,21.40
2019-05-13T18:50:41.777Z,21.30
2019-05-13T18:52:42.385Z,21.20
2019-05-13T18:54:46.696Z,21.00
2019-05-13T18:56:49.372Z,21.00
2019-05-13T18:58:52.731Z,20.70
2019-05-13T19:00:55.446Z,20.70
2019-05-13T19:03:01.314Z,20.50
2019-05-13T19:05:02.273Z,20.50
2019-05-13T19:07:07.693Z,20.40
2019-05-13T19:09:07.987Z,20.30
2019-05-13T19:11:11.905Z,20.10
2019-05-13T19:13:14.881Z,19.90
2019-05-13T19:15:18.379Z,19.90
2019-05-13T19:17:22.401Z,19.70
2019-05-13T19:19:24.369Z,19.70
2019-05-13T19:21:28.240Z,19.50
2019-05-13T19:23:31.758Z,19.30
2019-05-13T19:25:34.345Z,19.30
2019-05-13T19:27:36.985Z,19.30
2019-05-13T19:29:42.402Z,19.00
2019-05-13T19:31:44.699Z,19.00
2019-05-13T19:33:48.030Z,18.80
2019-05-13T19:35:51.795Z,18.70
2019-05-13T19:37:54.769Z,18.60
2019-05-13T19:39:58.088Z,18.50
2019-05-13T19:42:01.165Z,18.40
2019-05-13T19:44:04.466Z,18.20
2019-05-13T19:46:07.019Z,18.20
2019-05-13T19:48:11.913Z,18.10
2019-05-13T19:50:12.933Z,18.00
2019-05-13T19:52:15.716Z,18.00
2019-05-13T19:54:18.346Z,17.90
2019-05-13T19:56:21.922Z,17.70
2019-05-13T19:58:24.484Z,17.70
2019-05-13T20:00:27.702Z,17.70
2019-05-13T20:02:31.548Z,17.50
2019-05-13T20:04:33.821Z,17.50
2019-05-13T20:06:36.382Z,17.50
2019-05-13T20:08:41.120Z,17.40
2019-05-13T20:10:42.285Z,17.30
2019-05-13T20:12:45.971Z,17.20
2019-05-13T20:14:48.731Z,17.10
2019-05-13T20:16:53.463Z,17.10
2019-05-13T20:18:56.039Z,17.00
2019-05-13T20:21:01.052Z,17.00
2019-05-13T20:23:01.487Z,16.90
2019-05-13T20:25:03.979Z,16.80
2019-05-13T20:27:06.541Z,16.80
2019-05-13T20:29:10.186Z,16.80
2019-05-13T20:31:11.691Z,16.70
2019-05-13T20:33:15.210Z,16.70
2019-05-13T20:35:17.754Z,16.60
2019-05-13T20:37:21.471Z,16.60
2019-05-13T20:39:22.986Z,16.50
2019-05-13T20:41:25.531Z,16.50
2019-05-13T20:43:28.183Z,16.50
2019-05-13T20:45:31.235Z,16.40
2019-05-13T20:47:34.083Z,16.40
2019-05-13T20:49:36.678Z,16.40
2019-05-13T20:51:41.123Z,16.30
2019-05-13T20:53:41.832Z,16.30
2019-05-13T20:55:44.390Z,16.30
2019-05-13T20:57:46.947Z,16.20
2019-05-13T20:59:51.519Z,16.20
2019-05-13T21:01:52.978Z,16.20
2019-05-13T21:03:55.522Z,16.10
2019-05-13T21:05:58.075Z,16.10
2019-05-13T21:08:01.680Z,16.10
2019-05-13T21:10:03.207Z,16.10
2019-05-13T21:12:06.014Z,16.10
2019-05-13T21:14:08.695Z,16.10
2019-05-13T21:16:11.537Z,16.00
2019-05-13T21:18:13.934Z,16.00
2019-05-13T21:20:22.008Z,16.00
2019-05-13T21:22:21.275Z,16.00
2019-05-13T21:24:22.204Z,16.00
2019-05-13T21:26:24.738Z,16.00
2019-05-13T21:28:27.316Z,16.00
2019-05-13T21:30:29.897Z,16.00
2019-05-13T21:32:32.451Z,16.00
2019-05-13T21:34:35.140Z,15.90
2019-05-13T21:36:37.693Z,15.90
2019-05-13T21:38:40.254Z,15.90
2019-05-13T21:40:42.880Z,15.90
2019-05-13T21:42:45.470Z,15.90
2019-05-13T21:44:51.316Z,15.90
2019-05-13T21:46:52.254Z,15.90
2019-05-13T21:48:55.618Z,15.90
2019-05-13T21:50:58.154Z,15.80
2019-05-13T21:53:01.995Z,15.90
2019-05-13T21:55:03.381Z,15.90
2019-05-13T21:57:06.849Z,15.80
2019-05-13T21:59:09.394Z,15.80
2019-05-13T22:01:12.086Z,15.80
2019-05-13T22:03:14.750Z,15.80
2019-05-13T22:05:17.290Z,15.80
2019-05-13T22:07:22.097Z,15.80
2019-05-13T22:09:22.486Z,15.70
2019-05-13T22:11:25.030Z,15.70
2019-05-13T22:13:27.627Z,15.70
2019-05-13T22:15:32.303Z,15.70
2019-05-13T22:17:33.303Z,15.70
2019-05-13T22:19:36.072Z,15.60
2019-05-13T22:21:38.808Z,15.60
2019-05-13T22:23:42.118Z,15.60
2019-05-13T22:25:44.706Z,15.60
2019-05-13T22:27:47.256Z,15.60
2019-05-13T22:29:51.662Z,15.60
2019-05-13T22:31:54.376Z,15.50
2019-05-13T22:33:57.773Z,15.60
2019-05-13T22:36:01.664Z,15.50
2019-05-13T22:38:04.427Z,15.50
2019-05-13T22:40:07.019Z,15.50
2019-05-13T22:42:12.236Z,15.50
2019-05-13T22:44:13.243Z,15.50
2019-05-13T22:46:15.798Z,15.50
2019-05-13T22:48:22.204Z,15.50
2019-05-13T22:50:22.541Z,15.50
2019-05-13T22:52:25.115Z,15.40
2019-05-13T22:54:27.828Z,15.40
2019-05-13T22:56:31.951Z,15.40
2019-05-13T22:58:33.179Z,15.40
2019-05-13T23:00:36.643Z,15.40
2019-05-13T23:02:41.848Z,15.30
2019-05-13T23:04:41.975Z,15.30
2019-05-13T23:06:44.367Z,15.30
2019-05-13T23:08:46.910Z,15.30
2019-05-13T23:10:51.394Z,15.30
2019-05-13T23:12:52.834Z,15.30
2019-05-13T23:14:55.379Z,15.20
2019-05-13T23:16:58.047Z,15.20
2019-05-13T23:19:00.634Z,15.20
2019-05-13T23:21:03.210Z,15.20
2019-05-13T23:23:05.975Z,15.20
2019-05-13T23:25:08.554Z,15.20
2019-05-13T23:27:11.205Z,15.10
2019-05-13T23:29:13.694Z,15.10
2019-05-13T23:31:16.266Z,15.10
2019-05-13T23:33:18.938Z,15.10
2019-05-13T23:35:21.777Z,15.00
2019-05-13T23:37:24.064Z,15.00
2019-05-13T23:39:26.623Z,15.00
2019-05-13T23:41:29.346Z,14.90
2019-05-13T23:43:31.918Z,14.90
2019-05-13T23:45:34.598Z,14.90
2019-05-13T23:47:37.694Z,14.90
2019-05-13T23:49:42.084Z,14.80
2019-05-13T23:51:52.806Z,14.80
2019-05-13T23:54:05.379Z,14.80
